Terminal Aerodrome Forecast
Issued by NWS

Home | Current Version | Previous Version | Text Only | Print | Product List | Glossary On
Versions: 1 2 3 4 5 6 7 8 9 10 11 12 13 14 15 16
000
FTUS46 KMTR 231100
TAFMRY
TAF
KMRY 231122Z 2312/2412 VRB03KT P6SM BKN200
     FM231900 29005KT P6SM BKN200
     FM240400 VRB03KT P6SM SCT010
     FM240600 VRB03KT P6SM OVC008=

USA.gov is the U.S. government's official web portal to all federal, state and local government web resources and services.